Terminal Aerodrome Forecast
Issued by NWS Sterling, VA

Home | Current Version | Previous Version | Text Only | Print | Product List | Glossary On
Versions: 1 2 3 4 5 6 7 8 9 10 11 12 13
000
FTUS41 KLWX 272322
TAFMRB
TAF
KMRB 272322Z 2800/2824 13004KT P6SM BKN080
     FM280800 VRB03KT P6SM SCT070
     FM281700 16007KT P6SM SCT070 BKN130
     FM282200 28008KT 5SM -SHRA SCT025 OVC050=

USA.gov is the U.S. government's official web portal to all federal, state and local government web resources and services.